sensor_id;sensor_type;location;lat;lon;timestamp;P1;durP1;ratioP1;P2;durP2;ratioP2
2772;SDS011;1394;47.044;15.744;2023-11-22T00:01:19;28.07;;;5.00;;
2772;SDS011;1394;47.044;15.744;2023-11-22T00:03:48;26.73;;;4.00;;
2772;SDS011;1394;47.044;15.744;2023-11-22T00:06:16;25.27;;;4.03;;
2772;SDS011;1394;47.044;15.744;2023-11-22T00:08:46;27.17;;;4.50;;
2772;SDS011;1394;47.044;15.744;2023-11-22T00:11:15;24.83;;;3.47;;
2772;SDS011;1394;47.044;15.744;2023-11-22T00:13:43;25.37;;;3.67;;
2772;SDS011;1394;47.044;15.744;2023-11-22T00:16:10;25.30;;;3.70;;
2772;SDS011;1394;47.044;15.744;2023-11-22T00:18:39;25.97;;;3.90;;
2772;SDS011;1394;47.044;15.744;2023-11-22T00:21:07;30.30;;;4.33;;
2772;SDS011;1394;47.044;15.744;2023-11-22T00:23:36;31.43;;;6.10;;
2772;SDS011;1394;47.044;15.744;2023-11-22T00:26:06;29.27;;;5.53;;
2772;SDS011;1394;47.044;15.744;2023-11-22T00:28:36;32.60;;;4.70;;
2772;SDS011;1394;47.044;15.744;2023-11-22T00:31:03;24.63;;;3.23;;
2772;SDS011;1394;47.044;15.744;2023-11-22T00:33:30;25.17;;;3.57;;
2772;SDS011;1394;47.044;15.744;2023-11-22T00:36:01;25.67;;;3.53;;
2772;SDS011;1394;47.044;15.744;2023-11-22T00:38:34;25.93;;;3.90;;
2772;SDS011;1394;47.044;15.744;2023-11-22T00:41:02;24.70;;;3.10;;
2772;SDS011;1394;47.044;15.744;2023-11-22T00:43:30;26.70;;;3.70;;
2772;SDS011;1394;47.044;15.744;2023-11-22T00:46:00;24.70;;;3.00;;
2772;SDS011;1394;47.044;15.744;2023-11-22T00:48:27;25.40;;;3.93;;
2772;SDS011;1394;47.044;15.744;2023-11-22T00:50:55;24.00;;;2.73;;
2772;SDS011;1394;47.044;15.744;2023-11-22T00:53:24;26.07;;;3.70;;
2772;SDS011;1394;47.044;15.744;2023-11-22T00:55:51;25.07;;;3.67;;
2772;SDS011;1394;47.044;15.744;2023-11-22T00:58:19;24.77;;;3.27;;
2772;SDS011;1394;47.044;15.744;2023-11-22T01:00:49;26.43;;;4.30;;
2772;SDS011;1394;47.044;15.744;2023-11-22T01:03:17;24.90;;;3.53;;
2772;SDS011;1394;47.044;15.744;2023-11-22T01:05:45;24.50;;;2.83;;
2772;SDS011;1394;47.044;15.744;2023-11-22T01:08:13;24.83;;;3.03;;
2772;SDS011;1394;47.044;15.744;2023-11-22T01:10:42;25.00;;;3.00;;
2772;SDS011;1394;47.044;15.744;2023-11-22T01:13:09;24.97;;;3.10;;
2772;SDS011;1394;47.044;15.744;2023-11-22T01:15:37;24.60;;;3.67;;
2772;SDS011;1394;47.044;15.744;2023-11-22T01:18:04;24.40;;;2.90;;
2772;SDS011;1394;47.044;15.744;2023-11-22T01:20:31;24.70;;;3.30;;
2772;SDS011;1394;47.044;15.744;2023-11-22T01:22:58;24.83;;;3.50;;
2772;SDS011;1394;47.044;15.744;2023-11-22T01:25:30;24.87;;;3.37;;
2772;SDS011;1394;47.044;15.744;2023-11-22T01:27:59;24.97;;;3.07;;
2772;SDS011;1394;47.044;15.744;2023-11-22T01:30:27;25.10;;;3.37;;
2772;SDS011;1394;47.044;15.744;2023-11-22T01:35:53;24.33;;;2.63;;
2772;SDS011;1394;47.044;15.744;2023-11-22T01:38:36;25.00;;;3.60;;
2772;SDS011;1394;47.044;15.744;2023-11-22T01:41:05;25.43;;;3.20;;
2772;SDS011;1394;47.044;15.744;2023-11-22T01:43:34;25.10;;;2.90;;
2772;SDS011;1394;47.044;15.744;2023-11-22T01:46:01;24.73;;;3.20;;
2772;SDS011;1394;47.044;15.744;2023-11-22T01:48:30;25.37;;;3.43;;
2772;SDS011;1394;47.044;15.744;2023-11-22T01:50:58;26.60;;;3.90;;
2772;SDS011;1394;47.044;15.744;2023-11-22T01:53:25;24.63;;;3.23;;
2772;SDS011;1394;47.044;15.744;2023-11-22T01:55:53;24.43;;;2.87;;
2772;SDS011;1394;47.044;15.744;2023-11-22T01:58:21;25.00;;;3.20;;
2772;SDS011;1394;47.044;15.744;2023-11-22T02:00:51;24.37;;;2.93;;
2772;SDS011;1394;47.044;15.744;2023-11-22T02:03:18;24.23;;;2.60;;
2772;SDS011;1394;47.044;15.744;2023-11-22T02:05:59;24.37;;;2.50;;
2772;SDS011;1394;47.044;15.744;2023-11-22T02:08:27;24.57;;;2.90;;
2772;SDS011;1394;47.044;15.744;2023-11-22T02:10:57;24.87;;;2.97;;
2772;SDS011;1394;47.044;15.744;2023-11-22T02:13:24;25.40;;;3.37;;
2772;SDS011;1394;47.044;15.744;2023-11-22T02:15:54;24.80;;;2.93;;
2772;SDS011;1394;47.044;15.744;2023-11-22T02:18:21;30.00;;;4.10;;
2772;SDS011;1394;47.044;15.744;2023-11-22T02:20:49;25.10;;;3.37;;
2772;SDS011;1394;47.044;15.744;2023-11-22T02:23:18;25.17;;;3.37;;
2772;SDS011;1394;47.044;15.744;2023-11-22T02:25:47;25.03;;;3.30;;
2772;SDS011;1394;47.044;15.744;2023-11-22T02:28:15;30.33;;;3.57;;
2772;SDS011;1394;47.044;15.744;2023-11-22T02:30:43;29.10;;;4.33;;
2772;SDS011;1394;47.044;15.744;2023-11-22T02:33:10;27.67;;;3.30;;
2772;SDS011;1394;47.044;15.744;2023-11-22T02:35:46;25.77;;;3.70;;
2772;SDS011;1394;47.044;15.744;2023-11-22T02:38:23;25.90;;;3.70;;
2772;SDS011;1394;47.044;15.744;2023-11-22T02:40:53;25.40;;;2.80;;
2772;SDS011;1394;47.044;15.744;2023-11-22T02:43:21;25.30;;;3.20;;
2772;SDS011;1394;47.044;15.744;2023-11-22T02:45:48;26.10;;;3.30;;
2772;SDS011;1394;47.044;15.744;2023-11-22T02:48:17;26.33;;;4.10;;
2772;SDS011;1394;47.044;15.744;2023-11-22T02:50:47;24.63;;;2.57;;
2772;SDS011;1394;47.044;15.744;2023-11-22T02:53:16;25.20;;;3.00;;
2772;SDS011;1394;47.044;15.744;2023-11-22T02:55:49;25.20;;;2.90;;
2772;SDS011;1394;47.044;15.744;2023-11-22T02:58:21;26.63;;;3.83;;
2772;SDS011;1394;47.044;15.744;2023-11-22T03:00:58;24.70;;;2.90;;
2772;SDS011;1394;47.044;15.744;2023-11-22T03:03:27;24.50;;;2.50;;
2772;SDS011;1394;47.044;15.744;2023-11-22T03:05:54;25.87;;;2.90;;
2772;SDS011;1394;47.044;15.744;2023-11-22T03:08:21;24.50;;;2.63;;
2772;SDS011;1394;47.044;15.744;2023-11-22T03:10:50;24.83;;;2.50;;
2772;SDS011;1394;47.044;15.744;2023-11-22T03:13:18;24.57;;;2.90;;
2772;SDS011;1394;47.044;15.744;2023-11-22T03:15:45;24.40;;;2.60;;
2772;SDS011;1394;47.044;15.744;2023-11-22T03:18:13;25.13;;;3.20;;
2772;SDS011;1394;47.044;15.744;2023-11-22T03:20:41;24.87;;;3.30;;
2772;SDS011;1394;47.044;15.744;2023-11-22T03:23:13;26.57;;;3.20;;
2772;SDS011;1394;47.044;15.744;2023-11-22T03:25:42;25.00;;;2.80;;
2772;SDS011;1394;47.044;15.744;2023-11-22T03:28:11;24.93;;;2.80;;
2772;SDS011;1394;47.044;15.744;2023-11-22T03:30:38;24.20;;;2.50;;
2772;SDS011;1394;47.044;15.744;2023-11-22T03:33:06;24.47;;;2.63;;
2772;SDS011;1394;47.044;15.744;2023-11-22T03:35:40;24.07;;;2.13;;
2772;SDS011;1394;47.044;15.744;2023-11-22T03:38:08;24.30;;;2.50;;
2772;SDS011;1394;47.044;15.744;2023-11-22T03:40:39;24.80;;;2.60;;
2772;SDS011;1394;47.044;15.744;2023-11-22T03:43:07;24.27;;;2.47;;
2772;SDS011;1394;47.044;15.744;2023-11-22T03:45:44;24.10;;;2.30;;
2772;SDS011;1394;47.044;15.744;2023-11-22T03:48:12;24.00;;;2.43;;
2772;SDS011;1394;47.044;15.744;2023-11-22T03:50:44;24.47;;;2.57;;
2772;SDS011;1394;47.044;15.744;2023-11-22T03:53:26;25.00;;;2.37;;
2772;SDS011;1394;47.044;15.744;2023-11-22T03:55:54;24.80;;;2.80;;
2772;SDS011;1394;47.044;15.744;2023-11-22T03:58:21;24.27;;;2.50;;
2772;SDS011;1394;47.044;15.744;2023-11-22T04:00:52;25.50;;;3.40;;
2772;SDS011;1394;47.044;15.744;2023-11-22T04:06:06;24.43;;;2.30;;
2772;SDS011;1394;47.044;15.744;2023-11-22T04:08:33;24.83;;;2.33;;
2772;SDS011;1394;47.044;15.744;2023-11-22T04:11:01;24.17;;;2.20;;
2772;SDS011;1394;47.044;15.744;2023-11-22T04:13:30;24.83;;;2.13;;
2772;SDS011;1394;47.044;15.744;2023-11-22T04:16:01;23.77;;;2.00;;
2772;SDS011;1394;47.044;15.744;2023-11-22T04:18:29;23.97;;;1.70;;
2772;SDS011;1394;47.044;15.744;2023-11-22T04:20:56;23.80;;;2.13;;
2772;SDS011;1394;47.044;15.744;2023-11-22T04:23:26;24.67;;;2.50;;
2772;SDS011;1394;47.044;15.744;2023-11-22T04:25:53;25.20;;;3.10;;
2772;SDS011;1394;47.044;15.744;2023-11-22T04:28:22;24.33;;;2.43;;
2772;SDS011;1394;47.044;15.744;2023-11-22T04:31:06;23.97;;;2.10;;
2772;SDS011;1394;47.044;15.744;2023-11-22T04:33:34;24.20;;;2.03;;
2772;SDS011;1394;47.044;15.744;2023-11-22T04:41:37;23.60;;;1.67;;
2772;SDS011;1394;47.044;15.744;2023-11-22T04:44:04;24.00;;;1.90;;
2772;SDS011;1394;47.044;15.744;2023-11-22T04:46:33;23.47;;;1.77;;
2772;SDS011;1394;47.044;15.744;2023-11-22T04:49:01;26.13;;;2.00;;
2772;SDS011;1394;47.044;15.744;2023-11-22T04:51:28;24.10;;;1.80;;
2772;SDS011;1394;47.044;15.744;2023-11-22T04:53:58;23.50;;;1.60;;
2772;SDS011;1394;47.044;15.744;2023-11-22T04:56:28;23.73;;;1.60;;
2772;SDS011;1394;47.044;15.744;2023-11-22T04:58:55;23.87;;;2.00;;
2772;SDS011;1394;47.044;15.744;2023-11-22T05:01:23;24.17;;;2.13;;
2772;SDS011;1394;47.044;15.744;2023-11-22T05:03:54;23.60;;;1.73;;
2772;SDS011;1394;47.044;15.744;2023-11-22T05:06:27;23.70;;;1.83;;
2772;SDS011;1394;47.044;15.744;2023-11-22T05:09:09;23.30;;;1.43;;
2772;SDS011;1394;47.044;15.744;2023-11-22T05:11:39;23.83;;;1.50;;
2772;SDS011;1394;47.044;15.744;2023-11-22T05:14:20;23.57;;;1.70;;
2772;SDS011;1394;47.044;15.744;2023-11-22T05:27:32;23.70;;;1.73;;
2772;SDS011;1394;47.044;15.744;2023-11-22T05:30:01;23.23;;;1.47;;
2772;SDS011;1394;47.044;15.744;2023-11-22T05:32:34;24.30;;;1.50;;
2772;SDS011;1394;47.044;15.744;2023-11-22T05:35:01;23.47;;;1.63;;
2772;SDS011;1394;47.044;15.744;2023-11-22T05:37:32;24.07;;;1.73;;
2772;SDS011;1394;47.044;15.744;2023-11-22T05:39:59;23.60;;;1.73;;
2772;SDS011;1394;47.044;15.744;2023-11-22T05:42:33;23.23;;;1.50;;
2772;SDS011;1394;47.044;15.744;2023-11-22T05:45:00;23.37;;;1.60;;
2772;SDS011;1394;47.044;15.744;2023-11-22T05:47:33;23.97;;;1.97;;
2772;SDS011;1394;47.044;15.744;2023-11-22T05:50:00;29.60;;;4.50;;
2772;SDS011;1394;47.044;15.744;2023-11-22T05:52:29;26.40;;;3.40;;
2772;SDS011;1394;47.044;15.744;2023-11-22T05:54:56;25.70;;;2.80;;
2772;SDS011;1394;47.044;15.744;2023-11-22T05:57:23;24.27;;;2.03;;
2772;SDS011;1394;47.044;15.744;2023-11-22T05:59:52;23.93;;;1.93;;
2772;SDS011;1394;47.044;15.744;2023-11-22T06:02:19;24.10;;;2.00;;
2772;SDS011;1394;47.044;15.744;2023-11-22T06:04:47;25.10;;;2.57;;
2772;SDS011;1394;47.044;15.744;2023-11-22T06:07:15;25.40;;;2.73;;
2772;SDS011;1394;47.044;15.744;2023-11-22T06:09:43;25.10;;;2.90;;
2772;SDS011;1394;47.044;15.744;2023-11-22T06:12:10;26.17;;;3.20;;
2772;SDS011;1394;47.044;15.744;2023-11-22T06:14:39;24.90;;;2.50;;
2772;SDS011;1394;47.044;15.744;2023-11-22T06:17:08;24.23;;;2.13;;
2772;SDS011;1394;47.044;15.744;2023-11-22T06:19:35;24.33;;;2.63;;
2772;SDS011;1394;47.044;15.744;2023-11-22T06:22:05;24.13;;;1.90;;
2772;SDS011;1394;47.044;15.744;2023-11-22T06:24:33;24.07;;;1.67;;
2772;SDS011;1394;47.044;15.744;2023-11-22T06:27:01;24.37;;;2.60;;
2772;SDS011;1394;47.044;15.744;2023-11-22T06:29:30;24.17;;;1.97;;
2772;SDS011;1394;47.044;15.744;2023-11-22T06:31:58;23.67;;;2.00;;
2772;SDS011;1394;47.044;15.744;2023-11-22T06:34:27;24.13;;;2.00;;
2772;SDS011;1394;47.044;15.744;2023-11-22T06:36:54;24.70;;;1.80;;
2772;SDS011;1394;47.044;15.744;2023-11-22T06:39:21;23.97;;;2.00;;
2772;SDS011;1394;47.044;15.744;2023-11-22T06:41:50;26.47;;;1.80;;
2772;SDS011;1394;47.044;15.744;2023-11-22T06:44:19;23.83;;;1.57;;
2772;SDS011;1394;47.044;15.744;2023-11-22T06:46:48;23.97;;;1.73;;
2772;SDS011;1394;47.044;15.744;2023-11-22T06:49:15;25.40;;;1.77;;
2772;SDS011;1394;47.044;15.744;2023-11-22T06:51:45;23.97;;;1.60;;
2772;SDS011;1394;47.044;15.744;2023-11-22T06:54:13;23.57;;;1.77;;
2772;SDS011;1394;47.044;15.744;2023-11-22T06:56:40;24.80;;;1.70;;
2772;SDS011;1394;47.044;15.744;2023-11-22T06:59:10;24.70;;;2.00;;
2772;SDS011;1394;47.044;15.744;2023-11-22T07:01:40;24.23;;;2.40;;
2772;SDS011;1394;47.044;15.744;2023-11-22T07:04:07;23.80;;;1.90;;
2772;SDS011;1394;47.044;15.744;2023-11-22T07:06:34;23.67;;;1.90;;
2772;SDS011;1394;47.044;15.744;2023-11-22T07:09:05;25.77;;;2.33;;
2772;SDS011;1394;47.044;15.744;2023-11-22T07:11:34;24.30;;;1.80;;
2772;SDS011;1394;47.044;15.744;2023-11-22T07:14:02;25.00;;;1.60;;
2772;SDS011;1394;47.044;15.744;2023-11-22T07:16:30;23.40;;;1.50;;
2772;SDS011;1394;47.044;15.744;2023-11-22T07:18:59;23.60;;;1.60;;
2772;SDS011;1394;47.044;15.744;2023-11-22T07:21:28;23.40;;;1.40;;
2772;SDS011;1394;47.044;15.744;2023-11-22T07:23:56;23.77;;;1.60;;
2772;SDS011;1394;47.044;15.744;2023-11-22T07:26:25;23.30;;;1.43;;
2772;SDS011;1394;47.044;15.744;2023-11-22T07:28:54;24.17;;;1.43;;
2772;SDS011;1394;47.044;15.744;2023-11-22T07:31:21;24.07;;;1.63;;
2772;SDS011;1394;47.044;15.744;2023-11-22T07:33:49;23.70;;;1.50;;
2772;SDS011;1394;47.044;15.744;2023-11-22T07:36:16;23.57;;;1.37;;
2772;SDS011;1394;47.044;15.744;2023-11-22T07:38:45;23.27;;;1.50;;
2772;SDS011;1394;47.044;15.744;2023-11-22T07:41:13;23.90;;;1.80;;
2772;SDS011;1394;47.044;15.744;2023-11-22T07:43:42;23.50;;;1.80;;
2772;SDS011;1394;47.044;15.744;2023-11-22T07:46:09;23.77;;;1.50;;
2772;SDS011;1394;47.044;15.744;2023-11-22T07:48:39;23.80;;;1.50;;
2772;SDS011;1394;47.044;15.744;2023-11-22T07:51:07;24.03;;;1.67;;
2772;SDS011;1394;47.044;15.744;2023-11-22T07:53:37;23.93;;;1.77;;
2772;SDS011;1394;47.044;15.744;2023-11-22T07:58:59;24.07;;;1.80;;
2772;SDS011;1394;47.044;15.744;2023-11-22T08:01:26;23.47;;;1.70;;
2772;SDS011;1394;47.044;15.744;2023-11-22T08:03:56;23.83;;;1.70;;
2772;SDS011;1394;47.044;15.744;2023-11-22T08:06:24;23.40;;;1.77;;
2772;SDS011;1394;47.044;15.744;2023-11-22T08:08:52;24.47;;;1.70;;
2772;SDS011;1394;47.044;15.744;2023-11-22T08:11:19;24.50;;;1.60;;
2772;SDS011;1394;47.044;15.744;2023-11-22T08:13:47;23.63;;;1.67;;
2772;SDS011;1394;47.044;15.744;2023-11-22T08:16:16;24.87;;;2.67;;
2772;SDS011;1394;47.044;15.744;2023-11-22T08:18:45;25.27;;;3.60;;
2772;SDS011;1394;47.044;15.744;2023-11-22T08:21:13;24.90;;;2.33;;
2772;SDS011;1394;47.044;15.744;2023-11-22T08:23:40;23.27;;;1.73;;
2772;SDS011;1394;47.044;15.744;2023-11-22T08:26:07;24.40;;;2.27;;
2772;SDS011;1394;47.044;15.744;2023-11-22T08:28:34;28.00;;;6.87;;
2772;SDS011;1394;47.044;15.744;2023-11-22T08:31:02;27.30;;;6.07;;
2772;SDS011;1394;47.044;15.744;2023-11-22T08:33:35;26.07;;;4.87;;
2772;SDS011;1394;47.044;15.744;2023-11-22T08:36:03;26.37;;;5.23;;
2772;SDS011;1394;47.044;15.744;2023-11-22T08:38:31;24.10;;;2.60;;
2772;SDS011;1394;47.044;15.744;2023-11-22T08:41:01;25.10;;;2.70;;
2772;SDS011;1394;47.044;15.744;2023-11-22T08:43:30;26.50;;;2.20;;
2772;SDS011;1394;47.044;15.744;2023-11-22T08:45:57;25.43;;;2.37;;
2772;SDS011;1394;47.044;15.744;2023-11-22T08:48:25;24.10;;;1.90;;
2772;SDS011;1394;47.044;15.744;2023-11-22T08:50:56;24.13;;;2.30;;
2772;SDS011;1394;47.044;15.744;2023-11-22T08:53:23;24.13;;;2.10;;
2772;SDS011;1394;47.044;15.744;2023-11-22T08:55:51;24.00;;;1.93;;
2772;SDS011;1394;47.044;15.744;2023-11-22T08:58:19;23.70;;;1.60;;
2772;SDS011;1394;47.044;15.744;2023-11-22T09:00:46;23.67;;;1.70;;
2772;SDS011;1394;47.044;15.744;2023-11-22T09:03:15;23.63;;;1.53;;
2772;SDS011;1394;47.044;15.744;2023-11-22T09:05:42;23.30;;;1.10;;
2772;SDS011;1394;47.044;15.744;2023-11-22T09:08:13;23.40;;;1.10;;
2772;SDS011;1394;47.044;15.744;2023-11-22T09:10:41;23.63;;;1.10;;
2772;SDS011;1394;47.044;15.744;2023-11-22T09:13:09;23.20;;;1.10;;
2772;SDS011;1394;47.044;15.744;2023-11-22T09:15:37;23.10;;;0.90;;
2772;SDS011;1394;47.044;15.744;2023-11-22T09:18:06;23.40;;;0.97;;
2772;SDS011;1394;47.044;15.744;2023-11-22T09:20:34;23.17;;;0.93;;
2772;SDS011;1394;47.044;15.744;2023-11-22T09:23:02;23.20;;;1.00;;
2772;SDS011;1394;47.044;15.744;2023-11-22T09:25:31;23.03;;;0.90;;
2772;SDS011;1394;47.044;15.744;2023-11-22T09:28:00;23.37;;;0.90;;
2772;SDS011;1394;47.044;15.744;2023-11-22T09:30:27;23.07;;;0.80;;
2772;SDS011;1394;47.044;15.744;2023-11-22T09:33:03;23.20;;;1.10;;
2772;SDS011;1394;47.044;15.744;2023-11-22T09:35:34;22.97;;;0.70;;
2772;SDS011;1394;47.044;15.744;2023-11-22T09:38:04;23.63;;;0.70;;
2772;SDS011;1394;47.044;15.744;2023-11-22T09:40:36;23.07;;;0.70;;
2772;SDS011;1394;47.044;15.744;2023-11-22T09:43:07;23.00;;;0.80;;
2772;SDS011;1394;47.044;15.744;2023-11-22T09:45:34;23.00;;;0.60;;
2772;SDS011;1394;47.044;15.744;2023-11-22T09:48:03;23.10;;;0.70;;
2772;SDS011;1394;47.044;15.744;2023-11-22T09:50:35;22.97;;;0.70;;
2772;SDS011;1394;47.044;15.744;2023-11-22T09:53:08;23.27;;;0.80;;
2772;SDS011;1394;47.044;15.744;2023-11-22T09:55:39;23.30;;;0.70;;
2772;SDS011;1394;47.044;15.744;2023-11-22T09:58:08;24.70;;;0.70;;
2772;SDS011;1394;47.044;15.744;2023-11-22T10:00:38;23.40;;;0.77;;
2772;SDS011;1394;47.044;15.744;2023-11-22T10:03:06;23.17;;;0.60;;
2772;SDS011;1394;47.044;15.744;2023-11-22T10:05:34;23.20;;;0.70;;
2772;SDS011;1394;47.044;15.744;2023-11-22T10:08:02;23.27;;;0.70;;
2772;SDS011;1394;47.044;15.744;2023-11-22T10:10:31;23.93;;;0.70;;
2772;SDS011;1394;47.044;15.744;2023-11-22T10:13:00;23.30;;;0.60;;
2772;SDS011;1394;47.044;15.744;2023-11-22T10:15:28;23.30;;;0.70;;
2772;SDS011;1394;47.044;15.744;2023-11-22T10:17:58;23.40;;;0.80;;
2772;SDS011;1394;47.044;15.744;2023-11-22T10:20:35;23.53;;;0.67;;
2772;SDS011;1394;47.044;15.744;2023-11-22T10:23:03;23.67;;;0.70;;
2772;SDS011;1394;47.044;15.744;2023-11-22T10:25:33;23.60;;;0.70;;
2772;SDS011;1394;47.044;15.744;2023-11-22T10:28:04;23.90;;;0.97;;
2772;SDS011;1394;47.044;15.744;2023-11-22T10:30:33;24.07;;;0.90;;
2772;SDS011;1394;47.044;15.744;2023-11-22T10:33:01;23.80;;;0.70;;
2772;SDS011;1394;47.044;15.744;2023-11-22T10:35:28;23.70;;;0.60;;
2772;SDS011;1394;47.044;15.744;2023-11-22T10:37:56;23.70;;;0.80;;
2772;SDS011;1394;47.044;15.744;2023-11-22T10:40:23;23.87;;;0.60;;
2772;SDS011;1394;47.044;15.744;2023-11-22T10:42:51;24.10;;;0.90;;
2772;SDS011;1394;47.044;15.744;2023-11-22T10:45:21;24.00;;;0.67;;
2772;SDS011;1394;47.044;15.744;2023-11-22T10:47:48;24.00;;;0.80;;
2772;SDS011;1394;47.044;15.744;2023-11-22T10:50:16;24.00;;;0.67;;
2772;SDS011;1394;47.044;15.744;2023-11-22T10:52:43;24.10;;;0.80;;
2772;SDS011;1394;47.044;15.744;2023-11-22T10:55:14;24.20;;;0.70;;
2772;SDS011;1394;47.044;15.744;2023-11-22T10:57:45;24.30;;;0.77;;
2772;SDS011;1394;47.044;15.744;2023-11-22T11:00:16;24.10;;;0.70;;
2772;SDS011;1394;47.044;15.744;2023-11-22T11:02:51;24.30;;;0.70;;
2772;SDS011;1394;47.044;15.744;2023-11-22T11:05:20;24.30;;;0.80;;
2772;SDS011;1394;47.044;15.744;2023-11-22T11:07:54;24.30;;;0.80;;
2772;SDS011;1394;47.044;15.744;2023-11-22T11:10:24;24.10;;;0.60;;
2772;SDS011;1394;47.044;15.744;2023-11-22T11:12:51;24.20;;;0.70;;
2772;SDS011;1394;47.044;15.744;2023-11-22T11:15:19;24.40;;;0.80;;
2772;SDS011;1394;47.044;15.744;2023-11-22T11:17:48;24.43;;;0.80;;
2772;SDS011;1394;47.044;15.744;2023-11-22T11:20:16;24.40;;;1.00;;
2772;SDS011;1394;47.044;15.744;2023-11-22T11:22:46;24.30;;;0.70;;
2772;SDS011;1394;47.044;15.744;2023-11-22T11:25:14;24.70;;;0.70;;
2772;SDS011;1394;47.044;15.744;2023-11-22T11:27:43;24.20;;;0.70;;
2772;SDS011;1394;47.044;15.744;2023-11-22T11:33:01;24.20;;;0.70;;
2772;SDS011;1394;47.044;15.744;2023-11-22T11:35:37;24.47;;;0.90;;
2772;SDS011;1394;47.044;15.744;2023-11-22T11:38:04;24.47;;;1.00;;
2772;SDS011;1394;47.044;15.744;2023-11-22T11:40:34;24.10;;;0.80;;
2772;SDS011;1394;47.044;15.744;2023-11-22T11:43:01;23.90;;;0.80;;
2772;SDS011;1394;47.044;15.744;2023-11-22T11:45:29;24.00;;;0.80;;
2772;SDS011;1394;47.044;15.744;2023-11-22T11:47:58;23.90;;;0.70;;
2772;SDS011;1394;47.044;15.744;2023-11-22T11:50:26;24.30;;;0.90;;
2772;SDS011;1394;47.044;15.744;2023-11-22T11:52:53;23.87;;;1.10;;
2772;SDS011;1394;47.044;15.744;2023-11-22T11:55:22;23.77;;;1.10;;
2772;SDS011;1394;47.044;15.744;2023-11-22T11:57:52;23.60;;;0.90;;
2772;SDS011;1394;47.044;15.744;2023-11-22T12:00:20;23.40;;;0.77;;
2772;SDS011;1394;47.044;15.744;2023-11-22T12:02:49;24.57;;;0.90;;
2772;SDS011;1394;47.044;15.744;2023-11-22T12:05:20;23.47;;;0.70;;
2772;SDS011;1394;47.044;15.744;2023-11-22T12:07:49;23.30;;;0.70;;
2772;SDS011;1394;47.044;15.744;2023-11-22T12:10:17;23.43;;;0.80;;
2772;SDS011;1394;47.044;15.744;2023-11-22T12:12:45;23.30;;;0.70;;
2772;SDS011;1394;47.044;15.744;2023-11-22T12:15:14;23.27;;;0.80;;
2772;SDS011;1394;47.044;15.744;2023-11-22T12:17:43;23.30;;;0.70;;
2772;SDS011;1394;47.044;15.744;2023-11-22T12:20:11;23.40;;;0.73;;
2772;SDS011;1394;47.044;15.744;2023-11-22T12:22:39;23.20;;;0.80;;
2772;SDS011;1394;47.044;15.744;2023-11-22T12:25:09;23.30;;;0.60;;
2772;SDS011;1394;47.044;15.744;2023-11-22T12:27:41;23.30;;;0.77;;
2772;SDS011;1394;47.044;15.744;2023-11-22T12:30:09;23.20;;;0.70;;
2772;SDS011;1394;47.044;15.744;2023-11-22T12:32:40;24.37;;;0.83;;
2772;SDS011;1394;47.044;15.744;2023-11-22T12:35:08;23.40;;;0.70;;
2772;SDS011;1394;47.044;15.744;2023-11-22T12:37:37;23.50;;;0.87;;
2772;SDS011;1394;47.044;15.744;2023-11-22T12:40:10;23.50;;;0.90;;
2772;SDS011;1394;47.044;15.744;2023-11-22T12:42:48;23.60;;;0.87;;
2772;SDS011;1394;47.044;15.744;2023-11-22T12:45:19;23.50;;;0.90;;
2772;SDS011;1394;47.044;15.744;2023-11-22T12:47:48;23.40;;;0.77;;
2772;SDS011;1394;47.044;15.744;2023-11-22T12:50:32;23.50;;;0.87;;
2772;SDS011;1394;47.044;15.744;2023-11-22T12:53:07;23.27;;;0.70;;
2772;SDS011;1394;47.044;15.744;2023-11-22T12:55:42;23.43;;;0.80;;
2772;SDS011;1394;47.044;15.744;2023-11-22T12:58:11;23.83;;;0.87;;
2772;SDS011;1394;47.044;15.744;2023-11-22T13:00:38;23.73;;;1.10;;
2772;SDS011;1394;47.044;15.744;2023-11-22T13:03:06;23.67;;;1.20;;
2772;SDS011;1394;47.044;15.744;2023-11-22T13:05:35;23.87;;;1.00;;
2772;SDS011;1394;47.044;15.744;2023-11-22T13:08:02;23.37;;;0.80;;
2772;SDS011;1394;47.044;15.744;2023-11-22T13:10:29;23.87;;;0.70;;
2772;SDS011;1394;47.044;15.744;2023-11-22T13:12:59;24.70;;;1.20;;
2772;SDS011;1394;47.044;15.744;2023-11-22T13:15:28;23.27;;;0.80;;
2772;SDS011;1394;47.044;15.744;2023-11-22T13:17:56;23.40;;;0.80;;
2772;SDS011;1394;47.044;15.744;2023-11-22T13:20:25;23.50;;;1.00;;
2772;SDS011;1394;47.044;15.744;2023-11-22T13:22:54;24.30;;;1.27;;
2772;SDS011;1394;47.044;15.744;2023-11-22T13:25:25;24.23;;;2.07;;
2772;SDS011;1394;47.044;15.744;2023-11-22T13:27:54;27.13;;;5.40;;
2772;SDS011;1394;47.044;15.744;2023-11-22T13:30:26;23.53;;;1.00;;
2772;SDS011;1394;47.044;15.744;2023-11-22T13:32:54;23.47;;;0.70;;
2772;SDS011;1394;47.044;15.744;2023-11-22T13:35:21;23.77;;;0.90;;
2772;SDS011;1394;47.044;15.744;2023-11-22T13:37:49;23.33;;;0.80;;
2772;SDS011;1394;47.044;15.744;2023-11-22T13:40:19;23.30;;;0.73;;
2772;SDS011;1394;47.044;15.744;2023-11-22T13:42:47;24.30;;;2.10;;
2772;SDS011;1394;47.044;15.744;2023-11-22T13:45:16;23.93;;;1.70;;
2772;SDS011;1394;47.044;15.744;2023-11-22T13:47:46;25.17;;;2.10;;
2772;SDS011;1394;47.044;15.744;2023-11-22T13:50:14;30.40;;;5.13;;
2772;SDS011;1394;47.044;15.744;2023-11-22T13:52:44;25.80;;;2.07;;
2772;SDS011;1394;47.044;15.744;2023-11-22T13:55:11;29.67;;;5.23;;
2772;SDS011;1394;47.044;15.744;2023-11-22T13:57:39;24.80;;;1.90;;
2772;SDS011;1394;47.044;15.744;2023-11-22T14:00:07;24.97;;;2.60;;
2772;SDS011;1394;47.044;15.744;2023-11-22T14:02:40;24.47;;;1.70;;
2772;SDS011;1394;47.044;15.744;2023-11-22T14:05:10;29.40;;;6.73;;
2772;SDS011;1394;47.044;15.744;2023-11-22T14:07:38;32.97;;;9.10;;
2772;SDS011;1394;47.044;15.744;2023-11-22T14:10:06;34.97;;;10.37;;
2772;SDS011;1394;47.044;15.744;2023-11-22T14:12:36;32.73;;;9.37;;
2772;SDS011;1394;47.044;15.744;2023-11-22T14:15:04;25.97;;;3.30;;
2772;SDS011;1394;47.044;15.744;2023-11-22T14:17:32;23.63;;;1.20;;
2772;SDS011;1394;47.044;15.744;2023-11-22T14:19:59;23.40;;;0.80;;
2772;SDS011;1394;47.044;15.744;2023-11-22T14:22:29;23.63;;;0.90;;
2772;SDS011;1394;47.044;15.744;2023-11-22T14:24:58;24.00;;;1.03;;
2772;SDS011;1394;47.044;15.744;2023-11-22T14:27:26;23.57;;;1.10;;
2772;SDS011;1394;47.044;15.744;2023-11-22T14:29:56;23.40;;;0.90;;
2772;SDS011;1394;47.044;15.744;2023-11-22T14:32:24;23.33;;;0.83;;
2772;SDS011;1394;47.044;15.744;2023-11-22T14:34:51;25.10;;;2.50;;
2772;SDS011;1394;47.044;15.744;2023-11-22T14:37:20;28.30;;;4.80;;
2772;SDS011;1394;47.044;15.744;2023-11-22T14:39:49;32.10;;;6.27;;
2772;SDS011;1394;47.044;15.744;2023-11-22T14:42:17;25.53;;;1.80;;
2772;SDS011;1394;47.044;15.744;2023-11-22T14:44:44;27.20;;;2.60;;
2772;SDS011;1394;47.044;15.744;2023-11-22T14:47:12;26.10;;;1.90;;
2772;SDS011;1394;47.044;15.744;2023-11-22T14:52:24;29.03;;;4.00;;
2772;SDS011;1394;47.044;15.744;2023-11-22T14:54:52;24.33;;;1.60;;
2772;SDS011;1394;47.044;15.744;2023-11-22T14:57:20;33.23;;;5.20;;
2772;SDS011;1394;47.044;15.744;2023-11-22T14:59:48;29.40;;;4.37;;
2772;SDS011;1394;47.044;15.744;2023-11-22T15:02:15;31.20;;;5.20;;
2772;SDS011;1394;47.044;15.744;2023-11-22T15:04:46;24.20;;;1.23;;
2772;SDS011;1394;47.044;15.744;2023-11-22T15:07:13;28.53;;;2.60;;
2772;SDS011;1394;47.044;15.744;2023-11-22T15:09:44;26.53;;;2.73;;
2772;SDS011;1394;47.044;15.744;2023-11-22T15:12:12;28.77;;;3.40;;
2772;SDS011;1394;47.044;15.744;2023-11-22T15:14:39;25.60;;;2.33;;
2772;SDS011;1394;47.044;15.744;2023-11-22T15:17:07;26.80;;;2.80;;
2772;SDS011;1394;47.044;15.744;2023-11-22T15:19:35;23.43;;;0.80;;
2772;SDS011;1394;47.044;15.744;2023-11-22T15:22:04;27.40;;;2.33;;
2772;SDS011;1394;47.044;15.744;2023-11-22T15:24:31;29.60;;;6.03;;
2772;SDS011;1394;47.044;15.744;2023-11-22T15:26:59;25.43;;;2.57;;
2772;SDS011;1394;47.044;15.744;2023-11-22T15:29:28;24.67;;;2.67;;